Antwerp, Ohio
Current Conditions -  °F | °C
As of 3:15 AM on Saturday 22 Nov 2014 (Local Time) from KGWB Reporting Station
Overcast Overcast  
Wind Chill: 30°   Ceiling: 2900
Heat Index: 30°   Visibility: 10mi
Dew Point: 18°   Wind: 3mph
Humidity: 60%   Direction: 170°S
Pressure: 30.23"   Gusts: NA
Location:  41.18°N, 84.74°W
Report Text: KGWB 220815Z AUTO 17003KT 10SM OVC029 M01/M08 A3023 RMK AO2
Loading
Personal Weather Stations






























Interactive Weather Map New forecast layout! Learn more

10-Day Weather Forecast

Advertisements
Track Severe Weather on mobile